createdAt,value
2018-10-19T00:00:54.428Z,19.75
2018-10-19T00:01:54.161Z,19.75
2018-10-19T00:02:54.744Z,19.75
2018-10-19T00:03:54.099Z,19.75
2018-10-19T00:04:54.186Z,19.75
2018-10-19T00:05:54.169Z,19.75
2018-10-19T00:06:54.093Z,19.75
2018-10-19T00:07:54.022Z,19.75
2018-10-19T00:08:54.335Z,19.75
2018-10-19T00:09:54.012Z,19.75
2018-10-19T00:10:54.181Z,19.75
2018-10-19T00:11:54.050Z,19.75
2018-10-19T00:12:54.758Z,19.75
2018-10-19T00:13:54.326Z,19.75
2018-10-19T00:14:54.273Z,19.75
2018-10-19T00:15:54.003Z,19.75
2018-10-19T00:16:54.520Z,19.75
2018-10-19T00:17:54.073Z,19.75
2018-10-19T00:18:54.246Z,19.75
2018-10-19T00:19:53.975Z,19.75
2018-10-19T00:20:54.448Z,19.75
2018-10-19T00:21:53.968Z,19.75
2018-10-19T00:22:54.273Z,19.75
2018-10-19T00:23:54.263Z,19.75
2018-10-19T00:24:54.682Z,19.75
2018-10-19T00:25:54.239Z,19.75
2018-10-19T00:26:54.473Z,19.75
2018-10-19T00:27:54.238Z,19.75
2018-10-19T00:28:55.002Z,19.75
2018-10-19T00:29:54.029Z,19.75
2018-10-19T00:30:54.131Z,19.75
2018-10-19T00:31:54.094Z,19.75
2018-10-19T00:32:54.783Z,19.75
2018-10-19T00:33:54.152Z,19.75
2018-10-19T00:34:54.325Z,19.75
2018-10-19T00:35:54.069Z,19.75
2018-10-19T00:36:54.774Z,19.75
2018-10-19T00:37:54.230Z,19.75
2018-10-19T00:38:54.152Z,19.75
2018-10-19T00:39:54.268Z,19.75
2018-10-19T00:40:54.372Z,19.75
2018-10-19T00:41:54.089Z,19.75
2018-10-19T00:42:54.243Z,19.75
2018-10-19T00:43:54.067Z,19.75
2018-10-19T00:44:54.627Z,19.75
2018-10-19T00:45:54.246Z,19.75
2018-10-19T00:46:54.393Z,19.75
2018-10-19T00:47:54.067Z,19.75
2018-10-19T00:48:54.172Z,19.75
2018-10-19T00:49:54.023Z,19.75
2018-10-19T00:50:54.174Z,19.75
2018-10-19T00:51:54.215Z,19.75
2018-10-19T00:52:54.879Z,19.75
2018-10-19T00:53:54.114Z,19.75
2018-10-19T00:54:54.666Z,19.75
2018-10-19T00:55:54.334Z,19.75
2018-10-19T00:56:54.198Z,19.75
2018-10-19T00:57:53.914Z,19.75
2018-10-19T00:58:54.259Z,19.75
2018-10-19T00:59:54.140Z,19.75
2018-10-19T01:00:54.204Z,19.75
2018-10-19T01:01:54.093Z,19.75
2018-10-19T01:02:54.620Z,19.75
2018-10-19T01:03:54.035Z,19.75
2018-10-19T01:04:54.418Z,19.75
2018-10-19T01:05:53.920Z,19.75
2018-10-19T01:06:54.210Z,19.75
2018-10-19T01:07:54.159Z,19.75
2018-10-19T01:08:54.259Z,19.75
2018-10-19T01:09:53.982Z,19.75
2018-10-19T01:10:54.458Z,19.75
2018-10-19T01:11:53.997Z,19.75
2018-10-19T01:12:54.128Z,19.75
2018-10-19T01:13:54.149Z,19.75
2018-10-19T01:14:54.280Z,19.75
2018-10-19T01:15:54.253Z,19.75
2018-10-19T01:16:54.365Z,19.75
2018-10-19T01:17:54.181Z,19.75
2018-10-19T01:18:54.200Z,19.75
2018-10-19T01:19:54.217Z,19.75
2018-10-19T01:20:54.320Z,19.75
2018-10-19T01:21:54.327Z,19.75
2018-10-19T01:22:54.463Z,19.75
2018-10-19T01:23:54.306Z,19.75
2018-10-19T01:24:54.312Z,19.75
2018-10-19T01:25:54.141Z,19.75
2018-10-19T01:26:54.302Z,19.75
2018-10-19T01:27:54.450Z,19.75
2018-10-19T01:28:54.340Z,19.75
2018-10-19T01:29:54.245Z,19.75
2018-10-19T01:30:54.038Z,19.75
2018-10-19T01:31:54.086Z,19.75
2018-10-19T01:32:54.542Z,19.75
2018-10-19T01:33:53.885Z,19.75
2018-10-19T01:34:54.441Z,19.75
2018-10-19T01:35:54.064Z,19.75
2018-10-19T01:36:54.211Z,19.75
2018-10-19T01:37:53.893Z,19.75
2018-10-19T01:38:54.191Z,19.75
2018-10-19T01:39:54.168Z,19.75
2018-10-19T01:40:54.196Z,19.75
2018-10-19T01:41:53.921Z,19.75
2018-10-19T01:42:54.153Z,19.75
2018-10-19T01:43:54.137Z,19.75
2018-10-19T01:44:54.307Z,19.75
2018-10-19T01:45:54.029Z,19.75
2018-10-19T01:46:54.216Z,19.75
2018-10-19T01:47:54.038Z,19.75
2018-10-19T01:48:53.992Z,19.75
2018-10-19T01:49:54.121Z,19.75
2018-10-19T01:50:54.356Z,19.75
2018-10-19T01:51:54.215Z,19.75
2018-10-19T01:52:54.242Z,19.75
2018-10-19T01:53:54.262Z,19.75
2018-10-19T01:54:54.035Z,19.75
2018-10-19T01:55:54.240Z,19.75
2018-10-19T01:56:54.237Z,19.75
2018-10-19T01:57:54.114Z,19.75
2018-10-19T01:58:54.044Z,19.75
2018-10-19T01:59:53.983Z,19.75
2018-10-19T02:00:54.125Z,19.75
2018-10-19T02:01:53.903Z,19.75
2018-10-19T02:02:54.587Z,19.75
2018-10-19T02:03:54.001Z,19.75
2018-10-19T02:04:54.276Z,19.75
2018-10-19T02:05:54.298Z,19.75
2018-10-19T02:06:54.133Z,19.75
2018-10-19T02:07:53.980Z,19.75
2018-10-19T02:08:54.918Z,19.75
2018-10-19T02:09:54.056Z,19.75
2018-10-19T02:10:54.503Z,19.75
2018-10-19T02:11:54.167Z,19.75
2018-10-19T02:12:53.889Z,19.75
2018-10-19T02:13:53.966Z,19.75
2018-10-19T02:14:54.219Z,19.75
2018-10-19T02:15:53.892Z,19.75
2018-10-19T02:16:54.513Z,19.75
2018-10-19T02:17:54.013Z,19.75
2018-10-19T02:18:54.321Z,19.75
2018-10-19T02:19:54.139Z,19.75
2018-10-19T02:20:54.382Z,19.75
2018-10-19T02:21:54.845Z,19.75
2018-10-19T02:22:54.486Z,19.75
2018-10-19T02:23:54.108Z,19.75
2018-10-19T02:24:53.993Z,19.75
2018-10-19T02:25:54.145Z,19.75
2018-10-19T02:26:54.447Z,19.75
2018-10-19T02:27:54.211Z,19.75
2018-10-19T02:28:54.246Z,19.75
2018-10-19T02:29:54.121Z,19.75
2018-10-19T02:30:54.074Z,19.75
2018-10-19T02:31:53.900Z,19.75
2018-10-19T02:32:54.964Z,19.75
2018-10-19T02:33:54.119Z,19.75
2018-10-19T02:34:54.497Z,19.75
2018-10-19T02:35:54.117Z,19.75
2018-10-19T02:36:54.107Z,19.75
2018-10-19T02:37:54.630Z,19.75
2018-10-19T02:38:54.380Z,19.75
2018-10-19T02:39:53.984Z,19.75
2018-10-19T02:40:54.219Z,19.75
2018-10-19T02:41:53.889Z,19.75
2018-10-19T02:42:54.107Z,19.75
2018-10-19T02:43:54.076Z,19.75
2018-10-19T02:44:54.254Z,19.75
2018-10-19T02:45:54.171Z,19.75
2018-10-19T02:46:54.585Z,19.75
2018-10-19T02:47:54.313Z,19.75
2018-10-19T02:48:54.344Z,19.75
2018-10-19T02:49:54.448Z,19.75
2018-10-19T02:50:54.319Z,19.75
2018-10-19T02:51:54.325Z,19.75
2018-10-19T02:52:54.125Z,19.75
2018-10-19T02:53:54.153Z,19.75
2018-10-19T02:54:54.159Z,19.75
2018-10-19T02:55:54.200Z,19.75
2018-10-19T02:56:54.262Z,19.75
2018-10-19T02:57:53.982Z,19.75
2018-10-19T02:58:54.315Z,19.75
2018-10-19T02:59:54.058Z,19.75
2018-10-19T03:00:53.911Z,19.75
2018-10-19T03:01:54.207Z,19.75
2018-10-19T03:02:54.505Z,19.75
2018-10-19T03:03:54.436Z,19.75
2018-10-19T03:04:54.235Z,19.75
2018-10-19T03:05:54.012Z,19.75
2018-10-19T03:06:53.974Z,19.75
2018-10-19T03:07:54.340Z,19.75
2018-10-19T03:08:54.346Z,19.75
2018-10-19T03:09:54.190Z,19.75
2018-10-19T03:10:54.110Z,19.75
2018-10-19T03:11:53.994Z,19.75
2018-10-19T03:12:54.091Z,19.75
2018-10-19T03:13:54.303Z,19.75
2018-10-19T03:14:54.136Z,19.75
2018-10-19T03:15:54.058Z,19.75
2018-10-19T03:16:54.164Z,19.75
2018-10-19T03:17:53.941Z,19.75
2018-10-19T03:18:54.088Z,19.75
2018-10-19T03:19:53.810Z,19.75
2018-10-19T03:20:54.151Z,19.75
2018-10-19T03:21:54.066Z,19.75
2018-10-19T03:22:54.313Z,19.75
2018-10-19T03:23:53.997Z,19.75
2018-10-19T03:24:53.900Z,19.75
2018-10-19T03:25:54.183Z,19.75
2018-10-19T03:26:54.533Z,19.75
2018-10-19T03:27:54.128Z,19.75
2018-10-19T03:28:54.263Z,19.75
2018-10-19T03:29:54.195Z,19.75
2018-10-19T03:30:54.397Z,19.75
2018-10-19T03:31:54.154Z,19.75
2018-10-19T03:32:54.167Z,19.75
2018-10-19T03:33:54.113Z,19.75
2018-10-19T03:34:54.392Z,19.75
2018-10-19T03:35:54.173Z,19.75
2018-10-19T03:36:54.112Z,19.75
2018-10-19T03:37:54.035Z,19.75
2018-10-19T03:38:54.427Z,19.75
2018-10-19T03:39:54.189Z,19.75
2018-10-19T03:40:54.332Z,19.75
2018-10-19T03:41:54.576Z,19.75
2018-10-19T03:42:54.264Z,19.75
2018-10-19T03:43:53.932Z,19.75
2018-10-19T03:44:54.264Z,19.75
2018-10-19T03:45:54.061Z,19.75
2018-10-19T03:46:54.389Z,19.75
2018-10-19T03:47:53.924Z,19.75
2018-10-19T03:48:54.050Z,19.75
2018-10-19T03:49:53.955Z,19.75
2018-10-19T03:50:54.632Z,19.75
2018-10-19T03:51:53.911Z,19.75
2018-10-19T03:52:54.349Z,19.75
2018-10-19T03:53:53.920Z,19.75
2018-10-19T03:54:54.150Z,19.75
2018-10-19T03:55:54.156Z,19.75
2018-10-19T03:56:54.343Z,19.75
2018-10-19T03:57:53.973Z,19.75
2018-10-19T03:58:54.051Z,19.75
2018-10-19T03:59:54.002Z,19.75
2018-10-19T04:00:54.207Z,19.75
2018-10-19T04:01:54.034Z,19.75
2018-10-19T04:02:54.213Z,19.75
2018-10-19T04:03:53.891Z,19.75
2018-10-19T04:04:54.086Z,19.75
2018-10-19T04:05:53.920Z,19.75
2018-10-19T04:06:54.465Z,19.75
2018-10-19T04:07:54.088Z,19.75
2018-10-19T04:08:54.112Z,19.75
2018-10-19T04:09:53.938Z,19.75
2018-10-19T04:10:54.427Z,19.75
2018-10-19T04:11:54.264Z,19.75
2018-10-19T04:12:54.448Z,19.75
2018-10-19T04:13:53.942Z,19.75
2018-10-19T04:14:54.106Z,19.75
2018-10-19T04:15:53.975Z,19.75
2018-10-19T04:16:54.362Z,19.75
2018-10-19T04:17:54.048Z,19.75
2018-10-19T04:18:54.130Z,19.75
2018-10-19T04:19:54.136Z,19.75
2018-10-19T04:20:54.093Z,19.75
2018-10-19T04:21:53.998Z,19.75
2018-10-19T04:22:54.226Z,19.75
2018-10-19T04:23:54.114Z,19.75
2018-10-19T04:24:54.211Z,19.75
2018-10-19T04:25:53.925Z,19.75
2018-10-19T04:26:54.090Z,19.75
2018-10-19T04:27:54.127Z,19.75
2018-10-19T04:28:54.351Z,19.75
2018-10-19T04:29:54.082Z,19.75
2018-10-19T04:30:53.953Z,19.75
2018-10-19T04:31:54.191Z,19.75
2018-10-19T04:32:54.411Z,19.75
2018-10-19T04:33:54.222Z,19.75
2018-10-19T04:34:54.238Z,19.75
2018-10-19T04:35:54.045Z,19.75
2018-10-19T04:36:54.302Z,19.75
2018-10-19T04:37:53.930Z,19.75
2018-10-19T04:38:54.333Z,19.75
2018-10-19T04:39:53.927Z,19.75
2018-10-19T04:40:54.261Z,19.75
2018-10-19T04:41:54.947Z,19.75
2018-10-19T04:42:54.338Z,19.75
2018-10-19T04:43:53.979Z,19.75
2018-10-19T04:44:54.027Z,19.75
2018-10-19T04:45:53.908Z,19.75
2018-10-19T04:46:54.096Z,19.75
2018-10-19T04:47:54.022Z,19.75
2018-10-19T04:48:53.953Z,19.75
2018-10-19T04:49:53.889Z,19.75
2018-10-19T04:50:54.404Z,19.75
2018-10-19T04:51:54.007Z,19.75
2018-10-19T04:52:54.119Z,19.75
2018-10-19T04:53:54.560Z,19.75
2018-10-19T04:54:54.012Z,19.75
2018-10-19T04:55:53.836Z,19.75
2018-10-19T04:56:54.265Z,19.75
2018-10-19T04:57:53.971Z,19.75
2018-10-19T04:58:54.332Z,19.75
2018-10-19T04:59:54.051Z,19.75
2018-10-19T05:00:54.191Z,19.75
2018-10-19T05:01:54.162Z,19.75
2018-10-19T05:02:54.644Z,19.75
2018-10-19T05:03:54.344Z,19.75
2018-10-19T05:04:54.540Z,19.75
2018-10-19T05:05:54.683Z,19.75
2018-10-19T05:06:54.061Z,19.75
2018-10-19T05:07:54.750Z,19.75
2018-10-19T05:08:54.064Z,19.75
2018-10-19T05:09:53.931Z,19.75
2018-10-19T05:10:54.607Z,19.75
2018-10-19T05:11:54.007Z,19.75
2018-10-19T05:12:54.728Z,19.75
2018-10-19T05:13:54.402Z,19.75
2018-10-19T05:14:53.841Z,19.75
2018-10-19T05:15:54.635Z,19.75
2018-10-19T05:16:54.349Z,19.75
2018-10-19T05:17:54.008Z,19.75
2018-10-19T05:18:53.861Z,19.75
2018-10-19T05:19:54.337Z,19.75
2018-10-19T05:20:53.947Z,19.75
2018-10-19T05:21:53.892Z,19.75
2018-10-19T05:22:54.556Z,19.75
2018-10-19T05:23:54.083Z,19.75
2018-10-19T05:24:54.016Z,19.75
2018-10-19T05:25:54.381Z,19.75
2018-10-19T05:26:54.099Z,19.75
2018-10-19T05:27:54.111Z,19.75
2018-10-19T05:28:54.123Z,19.75
2018-10-19T05:29:54.071Z,19.75
2018-10-19T05:30:54.180Z,19.75
2018-10-19T05:31:48.865Z,19.75
2018-10-19T05:32:49.316Z,19.75
2018-10-19T05:33:48.998Z,19.75
2018-10-19T05:34:49.011Z,19.75
2018-10-19T05:35:49.030Z,19.75
2018-10-19T05:36:49.193Z,19.75
2018-10-19T05:37:48.888Z,19.75
2018-10-19T05:38:49.429Z,19.75
2018-10-19T05:39:48.958Z,19.75
2018-10-19T05:40:48.849Z,20
2018-10-19T05:41:48.985Z,20
2018-10-19T05:42:49.000Z,20
2018-10-19T05:43:49.075Z,20
2018-10-19T05:44:48.896Z,20.25
2018-10-19T05:45:49.057Z,20.25
2018-10-19T05:46:49.249Z,20.25
2018-10-19T05:47:49.038Z,20.25
2018-10-19T05:48:49.008Z,20.5
2018-10-19T05:49:49.014Z,20.5
2018-10-19T05:50:49.139Z,20.5
2018-10-19T05:51:48.869Z,20.5
2018-10-19T05:52:48.966Z,20.5
2018-10-19T05:53:49.238Z,20.75
2018-10-19T05:54:49.155Z,20.75
2018-10-19T05:55:49.368Z,20.75
2018-10-19T05:56:48.927Z,20.75
2018-10-19T05:57:48.942Z,20.75
2018-10-19T05:58:49.011Z,21
2018-10-19T05:59:49.142Z,21
2018-10-19T06:00:49.049Z,21
2018-10-19T06:01:48.930Z,21
2018-10-19T06:02:49.086Z,21
2018-10-19T06:03:49.008Z,21.25
2018-10-19T06:04:49.068Z,21.25
2018-10-19T06:05:49.161Z,21.25
2018-10-19T06:06:51.132Z,21.25
2018-10-19T06:07:51.078Z,21.25
2018-10-19T06:08:51.090Z,21.25
2018-10-19T06:09:51.029Z,21.5
2018-10-19T06:10:51.144Z,21.5
2018-10-19T06:11:51.352Z,21.5
2018-10-19T06:12:51.564Z,21.5
2018-10-19T06:13:51.251Z,21.5
2018-10-19T06:14:50.850Z,21.5
2018-10-19T06:15:50.983Z,21.5
2018-10-19T06:16:51.233Z,21.5
2018-10-19T06:17:51.112Z,21.75
2018-10-19T06:18:51.141Z,21.75
2018-10-19T06:19:51.266Z,21.75
2018-10-19T06:20:51.110Z,21.75
2018-10-19T06:21:51.548Z,21.75
2018-10-19T06:22:51.001Z,21.75
2018-10-19T06:23:51.239Z,21.75
2018-10-19T06:24:51.117Z,21.75
2018-10-19T06:25:51.667Z,21.75
2018-10-19T06:26:51.013Z,21.75
2018-10-19T06:27:51.284Z,21.75
2018-10-19T06:28:51.110Z,21.75
2018-10-19T06:29:51.100Z,21.75
2018-10-19T06:30:51.239Z,21.75
2018-10-19T06:31:51.080Z,21.75
2018-10-19T06:32:51.223Z,21.75
2018-10-19T06:33:34.786Z,21.75
2018-10-19T06:34:34.590Z,22
2018-10-19T06:35:30.879Z,22
2018-10-19T06:36:30.689Z,22
2018-10-19T06:37:57.861Z,22
2018-10-19T06:39:06.060Z,22
2018-10-19T06:40:05.973Z,22
2018-10-19T06:41:06.150Z,22
2018-10-19T06:42:06.198Z,22
2018-10-19T06:43:06.084Z,22
2018-10-19T06:44:06.599Z,22
2018-10-19T06:45:05.878Z,22
2018-10-19T06:46:06.192Z,22.25
2018-10-19T06:47:06.922Z,22
2018-10-19T06:48:06.520Z,22
2018-10-19T06:54:06.129Z,22.25
2018-10-19T06:55:05.853Z,22.25
2018-10-19T06:56:06.501Z,22.25
2018-10-19T06:57:05.935Z,22.25
2018-10-19T06:58:05.990Z,22.25
2018-10-19T06:59:34.175Z,22.25
2018-10-19T07:00:33.309Z,22.25
2018-10-19T07:01:33.440Z,22.25
2018-10-19T07:02:33.009Z,22.25
2018-10-19T07:03:33.154Z,22.25
2018-10-19T07:13:54.372Z,22.5
2018-10-19T07:14:54.200Z,22.5
2018-10-19T07:20:09.983Z,22.5
2018-10-19T07:26:14.754Z,22.5
2018-10-19T07:27:14.171Z,22.5
2018-10-19T07:28:14.307Z,22.25
2018-10-19T07:29:30.332Z,22.5
2018-10-19T07:30:30.647Z,22.5
2018-10-19T07:31:30.122Z,22.25
2018-10-19T07:32:30.155Z,22.25
2018-10-19T07:33:30.155Z,22.5
2018-10-19T07:34:30.238Z,22.5
2018-10-19T07:35:30.039Z,22.5
2018-10-19T07:36:30.717Z,22.5
2018-10-19T07:37:30.517Z,22.25
2018-10-19T07:39:02.144Z,22.25
2018-10-19T07:40:02.172Z,22.25
2018-10-19T07:41:02.278Z,22.25
2018-10-19T07:42:02.416Z,22.25
2018-10-19T07:43:02.065Z,22.25
2018-10-19T07:44:26.634Z,22.25
2018-10-19T07:45:26.610Z,22.25
2018-10-19T07:46:26.591Z,22.25
2018-10-19T07:47:48.744Z,22.25
2018-10-19T07:48:47.511Z,22.25
2018-10-19T07:49:47.648Z,22.25
2018-10-19T07:50:47.392Z,22.25
2018-10-19T07:51:47.498Z,22.25
2018-10-19T07:52:47.418Z,22.25
2018-10-19T07:53:47.613Z,22.25
2018-10-19T07:54:47.564Z,22.25
2018-10-19T07:55:47.604Z,22.25
2018-10-19T07:56:48.160Z,22.25
2018-10-19T07:57:47.822Z,22.25
2018-10-19T07:58:47.830Z,22.25
2018-10-19T07:59:47.594Z,22.25
2018-10-19T08:00:48.342Z,22.25
2018-10-19T08:01:47.866Z,22.25
2018-10-19T08:02:47.490Z,22.25
2018-10-19T08:03:47.657Z,22.25
2018-10-19T08:04:47.709Z,22.25
2018-10-19T08:05:47.806Z,22.25
2018-10-19T08:06:47.691Z,22.25
2018-10-19T08:07:43.591Z,22.25
2018-10-19T08:08:43.225Z,22.25
2018-10-19T08:09:43.629Z,22.25
2018-10-19T08:10:43.318Z,22.25
2018-10-19T08:11:43.255Z,22.25
2018-10-19T08:12:43.299Z,22.25
2018-10-19T08:13:43.415Z,22.25
2018-10-19T08:14:43.663Z,22.25
2018-10-19T08:15:43.672Z,22.25
2018-10-19T08:16:43.219Z,22.25
2018-10-19T08:17:43.238Z,22.25
2018-10-19T08:18:43.699Z,22.25
2018-10-19T08:19:43.220Z,22.25
2018-10-19T08:20:43.187Z,22.25
2018-10-19T08:21:43.327Z,22.25
2018-10-19T08:22:43.495Z,22.5
2018-10-19T08:23:43.395Z,22.25
2018-10-19T08:24:43.217Z,22.5
2018-10-19T08:25:43.614Z,22.5
2018-10-19T08:26:22.084Z,22.5
2018-10-19T08:27:22.910Z,22.5
2018-10-19T08:28:22.038Z,22.25
2018-10-19T08:29:22.084Z,22.25
2018-10-19T08:30:22.073Z,22.25
2018-10-19T08:31:22.414Z,22.25
2018-10-19T08:32:21.976Z,22
2018-10-19T08:33:22.271Z,22
2018-10-19T08:34:22.266Z,22
2018-10-19T08:35:22.130Z,22
2018-10-19T08:36:22.158Z,21.75
2018-10-19T08:37:22.223Z,21.75
2018-10-19T08:38:22.504Z,21.75
2018-10-19T08:39:22.040Z,21.75
2018-10-19T08:40:22.396Z,21.5
2018-10-19T08:41:22.279Z,21.5
2018-10-19T08:42:21.890Z,21.5
2018-10-19T08:43:22.083Z,21.5
2018-10-19T08:44:22.059Z,21.5
2018-10-19T08:45:22.251Z,21.5
2018-10-19T08:46:22.266Z,21.25
2018-10-19T08:47:22.115Z,21.25
2018-10-19T08:48:22.385Z,21.25
2018-10-19T08:49:21.869Z,21.25
2018-10-19T08:50:22.261Z,21.25
2018-10-19T08:51:22.294Z,21.25
2018-10-19T08:52:22.030Z,21.25
2018-10-19T08:53:22.272Z,21
2018-10-19T08:54:22.199Z,21
2018-10-19T08:55:22.361Z,21
2018-10-19T08:56:22.285Z,21
2018-10-19T08:57:21.939Z,21
2018-10-19T08:58:22.816Z,21
2018-10-19T08:59:22.263Z,21
2018-10-19T09:00:22.251Z,21
2018-10-19T09:01:22.132Z,21
2018-10-19T09:02:22.075Z,21
2018-10-19T09:03:22.671Z,21
2018-10-19T09:04:22.096Z,21
2018-10-19T09:05:22.022Z,21
2018-10-19T09:06:22.172Z,20.75
2018-10-19T09:07:22.187Z,20.75
2018-10-19T09:08:22.184Z,20.75
2018-10-19T09:09:21.939Z,20.75
2018-10-19T09:10:21.986Z,20.75
2018-10-19T09:11:22.751Z,20.75
2018-10-19T09:12:22.544Z,20.75
2018-10-19T09:13:22.073Z,20.75
2018-10-19T09:14:22.298Z,20.75
2018-10-19T09:15:23.156Z,20.75
2018-10-19T09:16:22.157Z,20.75
2018-10-19T09:17:22.136Z,20.75
2018-10-19T09:18:22.265Z,20.75
2018-10-19T09:19:22.179Z,20.75
2018-10-19T09:20:21.945Z,20.75
2018-10-19T09:21:22.263Z,20.75
2018-10-19T09:22:22.175Z,20.75
2018-10-19T09:23:22.067Z,20.75
2018-10-19T09:24:21.886Z,20.75
2018-10-19T09:25:22.258Z,20.75
2018-10-19T09:26:22.120Z,20.75
2018-10-19T09:27:21.973Z,20.75
2018-10-19T09:28:22.062Z,20.75
2018-10-19T09:29:22.395Z,20.75
2018-10-19T09:30:22.037Z,20.75
2018-10-19T09:31:22.095Z,20.75
2018-10-19T09:32:21.962Z,20.75
2018-10-19T09:33:22.141Z,20.75
2018-10-19T09:34:22.423Z,20.75
2018-10-19T09:35:22.623Z,20.5
2018-10-19T09:36:23.796Z,20.5
2018-10-19T09:37:22.085Z,20.5
2018-10-19T09:38:22.397Z,20.5
2018-10-19T09:39:22.101Z,20.5
2018-10-19T09:40:22.662Z,20.5
2018-10-19T09:41:22.658Z,20.5
2018-10-19T09:42:22.055Z,20.5
2018-10-19T09:43:22.128Z,20.5
2018-10-19T09:44:21.866Z,20.5
2018-10-19T09:45:22.084Z,20.5
2018-10-19T09:46:22.149Z,20.5
2018-10-19T09:47:22.322Z,20.5
2018-10-19T09:48:22.007Z,20.5
2018-10-19T09:49:22.301Z,20.5
2018-10-19T09:50:22.085Z,20.5
2018-10-19T09:51:22.414Z,20.5
2018-10-19T09:52:22.211Z,20.5
2018-10-19T09:53:21.937Z,20.5
2018-10-19T09:54:21.978Z,20.5
2018-10-19T09:55:22.633Z,20.5
2018-10-19T09:56:22.235Z,20.5
2018-10-19T09:57:21.920Z,20.5
2018-10-19T09:58:22.012Z,20.5
2018-10-19T09:59:22.084Z,20.5
2018-10-19T10:00:21.940Z,20.5
2018-10-19T10:01:21.923Z,20.5
2018-10-19T10:02:22.016Z,20.5
2018-10-19T10:03:22.151Z,20.5
2018-10-19T10:04:22.152Z,20.5
2018-10-19T10:05:22.101Z,20.5
2018-10-19T10:06:22.353Z,20.5
2018-10-19T10:07:22.068Z,20.5
2018-10-19T10:08:21.972Z,20.5
2018-10-19T10:09:22.444Z,20.5
2018-10-19T10:10:22.085Z,20.5
2018-10-19T10:11:22.229Z,20.5
2018-10-19T10:12:21.939Z,20.5
2018-10-19T10:13:22.038Z,20.5
2018-10-19T10:14:22.158Z,20.5
2018-10-19T10:15:23.123Z,20.5
2018-10-19T10:16:22.331Z,20.5
2018-10-19T10:17:22.007Z,20.5
2018-10-19T10:18:22.111Z,20.5
2018-10-19T10:19:22.347Z,20.5
2018-10-19T10:20:22.303Z,20.5
2018-10-19T10:21:22.318Z,20.5
2018-10-19T10:22:21.903Z,20.5
2018-10-19T10:23:22.321Z,20.5
2018-10-19T10:24:22.520Z,20.5
2018-10-19T10:25:22.953Z,20.5
2018-10-19T10:26:22.176Z,20.5
2018-10-19T10:27:22.296Z,20.5
2018-10-19T10:28:22.547Z,20.5
2018-10-19T10:29:22.301Z,20.5
2018-10-19T10:30:22.126Z,20.5
2018-10-19T10:31:22.028Z,20.5
2018-10-19T10:32:22.725Z,20.5
2018-10-19T10:33:22.082Z,20.5
2018-10-19T10:34:22.124Z,20.5
2018-10-19T10:35:22.295Z,20.5
2018-10-19T10:36:22.126Z,20.5
2018-10-19T10:37:21.948Z,20.5
2018-10-19T10:38:22.076Z,20.5
2018-10-19T10:39:22.905Z,20.5
2018-10-19T10:40:21.902Z,20.5
2018-10-19T10:41:22.200Z,20.5
2018-10-19T10:42:22.052Z,20.5
2018-10-19T10:43:21.952Z,20.5
2018-10-19T10:44:22.108Z,20.25
2018-10-19T10:45:21.986Z,20.25
2018-10-19T10:46:22.033Z,20.25
2018-10-19T10:47:21.981Z,20.25
2018-10-19T10:48:21.995Z,20.25
2018-10-19T10:49:22.039Z,20.25
2018-10-19T10:50:22.127Z,20.25
2018-10-19T10:51:22.122Z,20.25
2018-10-19T10:52:22.061Z,20.25
2018-10-19T10:53:22.075Z,20.25
2018-10-19T10:54:22.162Z,20.25
2018-10-19T10:55:22.270Z,20.25
2018-10-19T10:56:22.121Z,20.25
2018-10-19T10:57:22.351Z,20.25
2018-10-19T10:58:22.011Z,20.25
2018-10-19T10:59:22.293Z,20.25
2018-10-19T11:00:22.222Z,20.25
2018-10-19T11:01:22.104Z,20.25
2018-10-19T11:02:22.234Z,20.25
2018-10-19T11:03:21.998Z,20.25
2018-10-19T11:04:22.079Z,20.25
2018-10-19T11:05:22.493Z,20.25
2018-10-19T11:06:22.368Z,20.25
2018-10-19T11:07:23.054Z,20.25
2018-10-19T11:08:22.640Z,20.25
2018-10-19T11:09:22.085Z,20.25
2018-10-19T11:10:22.051Z,20.25
2018-10-19T11:11:21.839Z,20.25
2018-10-19T11:12:22.330Z,20.25
2018-10-19T11:13:21.916Z,20.25
2018-10-19T11:14:21.887Z,20.25
2018-10-19T11:15:21.907Z,20.25
2018-10-19T11:16:21.878Z,20.25
2018-10-19T11:17:22.385Z,20.25
2018-10-19T11:18:22.109Z,20.25
2018-10-19T11:19:21.907Z,20.25
2018-10-19T11:20:22.441Z,20.25
2018-10-19T11:21:22.321Z,20.25
2018-10-19T11:22:22.286Z,20.25
2018-10-19T11:23:22.045Z,20.25
2018-10-19T11:24:22.137Z,20.25
2018-10-19T11:25:21.914Z,20.25
2018-10-19T11:26:21.979Z,20.25
2018-10-19T11:27:21.907Z,20.25
2018-10-19T11:28:22.654Z,20.25
2018-10-19T11:29:22.195Z,20.25
2018-10-19T11:30:23.158Z,20.25
2018-10-19T11:31:21.983Z,20.25
2018-10-19T11:32:22.619Z,20.25
2018-10-19T11:33:22.167Z,20.25
2018-10-19T11:34:21.827Z,20.25
2018-10-19T11:35:22.059Z,20.25
2018-10-19T11:36:22.070Z,20.25
2018-10-19T11:37:22.498Z,20.25
2018-10-19T11:38:22.083Z,20.25
2018-10-19T11:39:21.960Z,20.25
2018-10-19T11:40:21.963Z,20.25
2018-10-19T11:41:22.032Z,20.25
2018-10-19T11:42:22.312Z,20.25
2018-10-19T11:43:21.976Z,20.25
2018-10-19T11:44:22.166Z,20.25
2018-10-19T11:45:22.113Z,20.25
2018-10-19T11:46:22.509Z,20.25
2018-10-19T11:47:22.063Z,20.25
2018-10-19T11:48:22.049Z,20.25
2018-10-19T11:49:22.428Z,20.25
2018-10-19T11:50:22.048Z,20.25
2018-10-19T11:51:21.886Z,20.25
2018-10-19T11:52:22.539Z,20.25
2018-10-19T11:53:22.064Z,20.25
2018-10-19T11:54:21.915Z,20.25
2018-10-19T11:55:22.018Z,20.25
2018-10-19T11:56:22.061Z,20.25
2018-10-19T11:57:22.194Z,20.25
2018-10-19T11:58:22.337Z,20.25
2018-10-19T11:59:22.084Z,20.25
2018-10-19T12:00:22.116Z,20.25
2018-10-19T12:01:23.230Z,20.25
2018-10-19T12:02:22.052Z,20.25
2018-10-19T12:03:21.947Z,20.25
2018-10-19T12:04:21.883Z,20.25
2018-10-19T12:05:22.119Z,20.25
2018-10-19T12:06:22.071Z,20.25
2018-10-19T12:07:22.207Z,20.25
2018-10-19T12:08:21.921Z,20.25
2018-10-19T12:09:22.301Z,20.25
2018-10-19T12:10:21.960Z,20.25
2018-10-19T12:11:23.256Z,20.25
2018-10-19T12:12:22.050Z,20.25
2018-10-19T12:13:21.899Z,20.25
2018-10-19T12:14:22.156Z,20.25
2018-10-19T12:15:21.942Z,20.25
2018-10-19T12:16:22.516Z,20.25
2018-10-19T12:17:22.021Z,20.25
2018-10-19T12:18:21.977Z,20.25
2018-10-19T12:19:22.270Z,20
2018-10-19T12:20:22.009Z,20.25
2018-10-19T12:21:22.814Z,20
2018-10-19T12:22:21.964Z,20
2018-10-19T12:23:22.030Z,20
2018-10-19T12:24:22.072Z,20
2018-10-19T12:25:21.939Z,20.25
2018-10-19T12:26:22.133Z,20
2018-10-19T12:27:21.906Z,20
2018-10-19T12:28:22.138Z,20
2018-10-19T12:29:21.886Z,20
2018-10-19T12:30:22.354Z,20
2018-10-19T12:31:22.119Z,20
2018-10-19T12:32:21.947Z,20
2018-10-19T12:33:21.912Z,20.25
2018-10-19T12:34:22.334Z,20
2018-10-19T12:35:22.575Z,20
2018-10-19T12:36:22.086Z,20
2018-10-19T12:37:21.919Z,20
2018-10-19T12:38:22.057Z,20
2018-10-19T12:39:22.121Z,20
2018-10-19T12:40:22.350Z,20
2018-10-19T12:41:21.897Z,20
2018-10-19T12:42:22.030Z,20
2018-10-19T12:43:22.026Z,20
2018-10-19T12:44:22.137Z,20
2018-10-19T12:45:21.979Z,20
2018-10-19T12:46:21.911Z,20
2018-10-19T12:47:22.529Z,20
2018-10-19T12:48:22.019Z,20
2018-10-19T12:49:22.108Z,20
2018-10-19T12:50:22.134Z,20
2018-10-19T12:51:22.453Z,20
2018-10-19T12:52:22.333Z,20
2018-10-19T12:53:21.765Z,20
2018-10-19T12:54:22.647Z,20
2018-10-19T12:55:21.989Z,20
2018-10-19T12:56:22.299Z,20
2018-10-19T12:57:22.295Z,20
2018-10-19T12:58:22.061Z,20
2018-10-19T12:59:22.130Z,20
2018-10-19T13:00:22.551Z,20
2018-10-19T13:01:22.043Z,20
2018-10-19T13:02:22.277Z,20
2018-10-19T13:03:22.941Z,20
2018-10-19T13:04:22.177Z,20
2018-10-19T13:05:21.859Z,20
2018-10-19T13:06:21.933Z,20
2018-10-19T13:07:22.354Z,20
2018-10-19T13:08:21.988Z,20
2018-10-19T13:09:21.994Z,20
2018-10-19T13:10:22.121Z,20
2018-10-19T13:11:22.068Z,20
2018-10-19T13:12:21.923Z,20
2018-10-19T13:13:21.992Z,20
2018-10-19T13:14:22.267Z,20
2018-10-19T13:15:22.174Z,20
2018-10-19T13:16:23.044Z,20
2018-10-19T13:17:21.888Z,20
2018-10-19T13:18:21.984Z,20
2018-10-19T13:19:21.895Z,20
2018-10-19T13:20:22.049Z,20
2018-10-19T13:21:22.416Z,20
2018-10-19T13:22:22.065Z,20
2018-10-19T13:23:21.849Z,20
2018-10-19T13:24:22.135Z,20
2018-10-19T13:25:21.856Z,20
2018-10-19T13:26:22.277Z,20
2018-10-19T13:27:22.102Z,20
2018-10-19T13:28:22.085Z,20
2018-10-19T13:29:21.994Z,20
2018-10-19T13:30:21.999Z,20
2018-10-19T13:31:22.153Z,20
2018-10-19T13:32:21.832Z,20